Time;durP1;ratioP1;P1;durP2;ratioP2;P2;SDS_P1;SDS_P2;PMS_P1;PMS_P2;Temp;Humidity;BMP_temperature;BMP_pressure;BME280_temperature;BME280_humidity;BME280_pressure;Samples;Min_cycle;Max_cycle;Signal;HPM_P1;HPM_P2
2020/12/02 03:46:31;;;;;;;24.95;14.98;;;4.20;99.90;;;;;;5808390;22;89547;-82
2020/12/02 03:48:57;;;;;;;20.42;12.80;;;3.80;99.90;;;;;;4992653;28;86694;-83
2020/12/02 03:51:23;;;;;;;23.67;14.50;;;4.00;99.90;;;;;;5000076;28;86178;-82
2020/12/02 03:53:49;;;;;;;23.35;13.40;;;3.80;99.90;;;;;;4991180;28;87650;-83
2020/12/02 03:56:15;;;;;;;23.30;14.13;;;3.80;99.90;;;;;;4998652;28;87053;-83
2020/12/02 03:58:42;;;;;;;25.77;15.77;;;3.90;99.90;;;;;;5004291;28;87921;-82
2020/12/02 04:01:08;;;;;;;24.58;14.55;;;3.80;99.90;;;;;;4986348;28;86900;-82
2020/12/02 04:03:37;;;;;;;22.60;13.85;;;3.90;99.90;;;;;;5004472;28;86817;-83
2020/12/02 04:06:05;;;;;;;19.73;13.65;;;3.80;99.90;;;;;;5003504;28;87219;-82
2020/12/02 04:08:31;;;;;;;22.65;14.80;;;3.90;99.90;;;;;;5002743;28;86922;-83
2020/12/02 04:10:56;;;;;;;25.13;13.75;;;3.70;99.90;;;;;;5012737;28;86940;-83
2020/12/02 04:13:22;;;;;;;22.73;13.50;;;3.70;99.90;;;;;;4997635;28;86923;-83
2020/12/02 04:15:48;;;;;;;26.33;14.80;;;3.70;99.90;;;;;;4993442;28;86402;-83
2020/12/02 04:18:14;;;;;;;21.15;14.35;;;3.70;99.90;;;;;;5006344;28;86942;-81
2020/12/02 04:20:40;;;;;;;24.45;15.52;;;3.80;99.90;;;;;;5007054;28;86588;-83
2020/12/02 04:23:06;;;;;;;27.98;16.23;;;3.80;99.90;;;;;;5014789;28;88276;-82
2020/12/02 04:25:32;;;;;;;23.67;14.38;;;3.80;99.90;;;;;;5002987;28;88037;-82
2020/12/02 04:27:58;;;;;;;23.38;14.65;;;3.70;99.90;;;;;;5003987;28;87683;-82
2020/12/02 04:30:24;;;;;;;25.33;15.10;;;3.90;99.90;;;;;;5010401;28;86951;-81
2020/12/02 04:32:50;;;;;;;23.15;15.15;;;3.90;99.90;;;;;;5001511;28;87223;-82
2020/12/02 04:35:17;;;;;;;25.48;13.68;;;3.90;99.90;;;;;;5005571;28;86827;-82
2020/12/02 04:37:43;;;;;;;23.40;13.80;;;3.90;99.90;;;;;;5005028;28;87277;-82
2020/12/02 04:40:16;;;;;;;24.48;13.70;;;3.90;99.90;;;;;;5003788;28;86144;-82
2020/12/02 04:42:46;;;;;;;18.20;13.90;;;4.00;99.90;;;;;;5015481;28;87214;-81
2020/12/02 04:45:15;;;;;;;24.48;14.43;;;3.90;99.90;;;;;;5011132;28;88105;-81
2020/12/02 04:47:42;;;;;;;29.40;16.77;;;4.00;99.90;;;;;;4997098;28;87521;-81
2020/12/02 04:50:23;;;;;;;25.25;15.27;;;3.80;99.90;;;;;;4995372;28;86786;-81
2020/12/02 04:53:03;;;;;;;30.13;15.18;;;3.90;99.90;;;;;;5010713;28;86969;-81
2020/12/02 04:55:29;;;;;;;22.08;14.95;;;3.80;99.90;;;;;;5011164;28;86857;-80
2020/12/02 04:57:54;;;;;;;20.60;13.88;;;3.90;99.90;;;;;;5008228;28;87101;-80
2020/12/02 05:00:32;;;;;;;23.45;14.30;;;3.80;99.90;;;;;;5003677;28;86985;-80
2020/12/02 05:03:05;;;;;;;25.77;14.70;;;3.70;99.90;;;;;;4965668;28;88870;-80
2020/12/02 05:05:31;;;;;;;25.40;14.23;;;3.90;99.90;;;;;;4995811;28;86303;-80
2020/12/02 05:07:57;;;;;;;24.10;14.35;;;4.00;99.90;;;;;;4992558;28;86874;-80
2020/12/02 05:10:22;;;;;;;27.30;15.13;;;3.90;99.90;;;;;;4997885;28;87143;-79
2020/12/02 05:12:48;;;;;;;22.02;14.00;;;;;;;;;;5000176;28;87978;-80
2020/12/02 05:15:23;;;;;;;23.55;14.23;;;4.00;99.90;;;;;;5007616;28;88366;-80
2020/12/02 05:18:11;;;;;;;21.40;13.57;;;4.10;99.90;;;;;;5008003;28;86938;-80
2020/12/02 05:20:37;;;;;;;26.13;14.23;;;4.00;99.90;;;;;;5000191;28;86949;-79
2020/12/02 05:23:19;;;;;;;28.80;14.85;;;4.00;99.90;;;;;;5005190;28;87411;-79
2020/12/02 05:25:45;;;;;;;24.27;14.32;;;;;;;;;;4988449;28;88063;-80
2020/12/02 05:28:26;;;;;;;25.67;14.52;;;3.90;99.90;;;;;;5007272;28;86918;-82
2020/12/02 05:31:14;;;;;;;21.80;12.73;;;3.90;99.90;;;;;;4985892;28;85415;-79
2020/12/02 05:33:40;;;;;;;23.20;13.00;;;3.90;99.90;;;;;;4997658;28;87194;-79
2020/12/02 05:36:15;;;;;;;23.05;13.45;;;3.90;99.90;;;;;;5007204;28;87104;-79
2020/12/02 05:38:55;;;;;;;31.67;16.63;;;3.70;99.90;;;;;;5002628;28;87267;-80
2020/12/02 05:41:24;;;;;;;32.37;18.43;;;3.90;99.90;;;;;;5008348;28;86673;-80
2020/12/02 05:43:53;;;;;;;30.77;17.88;;;3.70;99.90;;;;;;5007400;28;88121;-80
2020/12/02 05:46:41;;;;;;;30.63;17.75;;;3.70;99.90;;;;;;5001207;28;86893;-80
2020/12/02 05:49:12;;;;;;;40.10;22.17;;;3.50;99.90;;;;;;5007398;28;86842;-80
2020/12/02 05:51:41;;;;;;;33.83;19.80;;;3.80;99.90;;;;;;4989727;28;87026;-80
2020/12/02 05:54:13;;;;;;;28.48;18.88;;;3.60;99.90;;;;;;4988699;28;86700;-80
2020/12/02 05:56:39;;;;;;;31.75;18.30;;;3.60;99.90;;;;;;5007614;28;87041;-81
2020/12/02 05:59:07;;;;;;;29.00;16.40;;;3.50;99.90;;;;;;4999107;28;86930;-82
2020/12/02 06:01:34;;;;;;;27.70;16.13;;;3.50;99.90;;;;;;4969778;28;87177;-82
2020/12/02 06:04:00;;;;;;;25.00;15.15;;;3.70;99.90;;;;;;5005609;28;88212;-82
2020/12/02 06:06:31;;;;;;;27.52;16.42;;;3.60;99.90;;;;;;5001427;28;87955;-82
2020/12/02 06:08:57;;;;;;;26.75;15.65;;;3.50;99.90;;;;;;5008993;28;87195;-82
2020/12/02 06:11:34;;;;;;;27.25;17.20;;;3.40;99.90;;;;;;4999487;28;86904;-82
2020/12/02 06:14:24;;;;;;;28.23;15.50;;;3.40;99.90;;;;;;5001014;28;87166;-82
2020/12/02 06:16:49;;;;;;;23.10;14.48;;;3.50;99.90;;;;;;5005539;28;86723;-82
2020/12/02 06:19:20;;;;;;;24.80;15.32;;;3.30;99.90;;;;;;4996282;28;86981;-82
2020/12/02 06:21:54;;;;;;;26.20;15.93;;;3.50;99.90;;;;;;5008932;28;86206;-82
2020/12/02 06:24:41;;;;;;;27.15;14.73;;;3.40;99.90;;;;;;4998328;28;87443;-82
2020/12/02 06:27:16;;;;;;;23.50;14.35;;;3.60;99.90;;;;;;4993274;28;86907;-82
2020/12/02 06:29:50;;;;;;;27.17;15.52;;;3.50;99.90;;;;;;5004177;28;87641;-82
2020/12/02 06:32:21;;;;;;;26.25;14.38;;;3.50;99.90;;;;;;4984272;28;86843;-83
2020/12/02 06:35:06;;;;;;;24.27;14.98;;;3.50;99.90;;;;;;4987889;28;87348;-82
2020/12/02 06:37:32;;;;;;;21.08;12.93;;;3.50;99.90;;;;;;4984095;28;86512;-82
2020/12/02 06:39:59;;;;;;;28.92;17.45;;;3.50;99.90;;;;;;5003107;28;87072;-83
2020/12/02 06:42:34;;;;;;;31.75;18.85;;;3.50;99.90;;;;;;5006555;28;87024;-82
2020/12/02 06:45:05;;;;;;;27.45;17.30;;;3.50;99.90;;;;;;5017404;28;87181;-80
2020/12/02 06:47:33;;;;;;;34.65;18.90;;;3.50;99.90;;;;;;5009295;28;86687;-79
2020/12/02 06:50:06;;;;;;;26.92;16.60;;;3.50;99.90;;;;;;4992308;28;86902;-80
2020/12/02 06:52:36;;;;;;;24.23;15.20;;;3.70;99.90;;;;;;5001193;28;86942;-81
2020/12/02 06:55:15;;;;;;;30.23;18.08;;;3.60;99.90;;;;;;4984956;28;87700;-80
2020/12/02 06:57:41;;;;;;;27.60;16.83;;;3.60;99.90;;;;;;5001877;28;88375;-80
2020/12/02 07:00:16;;;;;;;30.02;17.73;;;3.70;99.90;;;;;;4992281;28;86920;-81
2020/12/02 07:02:53;;;;;;;34.42;17.33;;;3.70;99.90;;;;;;4994161;28;86895;-80
2020/12/02 07:05:22;;;;;;;29.38;17.42;;;3.90;99.90;;;;;;5000139;28;87248;-80
2020/12/02 07:07:48;;;;;;;28.88;16.13;;;3.70;99.90;;;;;;5005075;28;86839;-80
2020/12/02 07:10:20;;;;;;;31.80;18.00;;;3.80;99.90;;;;;;4994501;28;86979;-81
2020/12/02 07:12:46;;;;;;;30.17;17.58;;;3.80;99.90;;;;;;4996257;28;87516;-81
2020/12/02 07:15:14;;;;;;;27.63;15.88;;;3.80;99.90;;;;;;4997108;28;87853;-82
2020/12/02 07:17:41;;;;;;;30.25;16.83;;;3.90;99.90;;;;;;4993571;28;87159;-81
2020/12/02 07:20:13;;;;;;;33.75;19.10;;;3.90;99.90;;;;;;4993883;28;87857;-81
2020/12/02 07:22:46;;;;;;;34.35;17.20;;;3.90;99.90;;;;;;4999727;28;86794;-81
2020/12/02 07:25:11;;;;;;;34.63;17.88;;;3.90;99.90;;;;;;4971290;28;90548;-81
2020/12/02 07:27:43;;;;;;;32.60;17.38;;;3.90;99.90;;;;;;5005432;28;87044;-81
2020/12/02 07:30:18;;;;;;;31.65;17.38;;;4.00;99.90;;;;;;5002596;28;87005;-81
2020/12/02 07:32:44;;;;;;;28.70;17.70;;;4.10;99.90;;;;;;5005355;28;87069;-81
2020/12/02 07:35:17;;;;;;;22.40;14.80;;;4.10;99.90;;;;;;5002631;28;87058;-81
2020/12/02 07:37:42;;;;;;;25.95;14.43;;;4.00;99.90;;;;;;5006144;28;86230;-81
2020/12/02 07:40:33;;;;;;;26.80;17.02;;;4.10;99.90;;;;;;5001302;28;87004;-81
2020/12/02 07:43:00;;;;;;;25.33;15.05;;;4.10;99.90;;;;;;5005589;28;86863;-81
2020/12/02 07:45:30;;;;;;;25.92;15.27;;;4.00;99.90;;;;;;5003402;28;89515;-81
2020/12/02 07:48:13;;;;;;;23.43;14.10;;;4.00;99.90;;;;;;5004239;28;88429;-81
2020/12/02 07:50:46;;;;;;;26.98;14.07;;;4.00;99.90;;;;;;4995458;28;87002;-81
2020/12/02 07:53:34;;;;;;;27.48;15.98;;;3.90;99.90;;;;;;4992814;28;86774;-81
2020/12/02 07:56:00;;;;;;;26.05;14.93;;;4.00;99.90;;;;;;5004612;28;87141;-81
2020/12/02 07:58:32;;;;;;;26.77;14.40;;;4.20;99.90;;;;;;4994013;28;86657;-81
2020/12/02 08:00:58;;;;;;;;;;;4.10;99.90;;;;;;5004128;28;86682;-81
2020/12/02 08:03:36;;;;;;;24.35;12.98;;;4.10;99.90;;;;;;4995934;28;86330;-81
2020/12/02 08:06:11;;;;;;;26.42;15.38;;;4.20;99.90;;;;;;4997146;28;87272;-81
2020/12/02 08:08:36;;;;;;;25.55;13.82;;;4.20;99.90;;;;;;5004954;28;87079;-81
2020/12/02 08:11:11;;;;;;;23.65;14.43;;;4.30;99.90;;;;;;5004709;28;87531;-81
2020/12/02 08:13:47;;;;;;;22.27;14.38;;;4.30;99.90;;;;;;5002411;28;86907;-81
2020/12/02 08:16:22;;;;;;;24.48;14.27;;;4.50;99.90;;;;;;4992617;28;87635;-81
2020/12/02 08:18:55;;;;;;;20.92;13.70;;;4.40;99.90;;;;;;5002746;28;86796;-81
2020/12/02 08:21:23;;;;;;;24.10;14.98;;;4.60;99.90;;;;;;4993463;28;86702;-81
2020/12/02 08:24:07;;;;;;;20.08;11.93;;;4.60;99.90;;;;;;4991241;28;86778;-81
2020/12/02 08:26:33;;;;;;;19.70;13.02;;;4.60;99.90;;;;;;5006604;28;87228;-81
2020/12/02 08:29:08;;;;;;;24.23;14.75;;;4.70;99.90;;;;;;4995749;28;87035;-81
2020/12/02 08:31:34;;;;;;;25.20;14.90;;;5.20;99.90;;;;;;5008058;28;87241;-81
2020/12/02 08:34:18;;;;;;;20.40;13.13;;;4.80;99.90;;;;;;5008450;28;87073;-81
2020/12/02 08:37:21;;;;;;;19.67;12.77;;;4.70;99.90;;;;;;5005903;28;89075;-81
2020/12/02 08:39:51;;;;;;;19.58;12.30;;;4.80;99.90;;;;;;4997030;28;88451;-81
2020/12/02 08:42:24;;;;;;;19.73;12.68;;;4.80;99.90;;;;;;5007831;28;86926;-81
2020/12/02 08:45:02;;;;;;;18.48;11.82;;;4.80;99.90;;;;;;5002655;28;86858;-81
2020/12/02 08:47:27;;;;;;;19.38;11.20;;;4.70;99.90;;;;;;5007238;28;86755;-81
2020/12/02 08:49:53;;;;;;;17.65;10.88;;;4.70;99.90;;;;;;4990755;28;87955;-81
2020/12/02 08:52:19;;;;;;;18.70;11.32;;;4.80;99.90;;;;;;4998615;28;86592;-81
2020/12/02 08:54:44;;;;;;;16.58;10.23;;;4.90;99.90;;;;;;4989377;28;86206;-81
2020/12/02 08:57:11;;;;;;;16.73;10.93;;;4.90;99.90;;;;;;5002936;28;87119;-81
2020/12/02 08:59:37;;;;;;;22.33;12.82;;;5.00;99.90;;;;;;5005603;28;86924;-81
2020/12/02 09:02:09;;;;;;;17.45;11.10;;;5.00;99.90;;;;;;4997765;28;87887;-81
2020/12/02 09:04:34;;;;;;;17.00;11.40;;;4.90;99.90;;;;;;5002491;28;87014;-81
2020/12/02 09:07:00;;;;;;;19.23;12.63;;;5.10;99.90;;;;;;4997697;28;87593;-81
2020/12/02 09:09:26;;;;;;;23.02;13.73;;;5.10;99.90;;;;;;5004450;28;86811;-81
2020/12/02 09:11:51;;;;;;;23.05;14.10;;;5.00;99.90;;;;;;4998864;28;87335;-81
2020/12/02 09:14:17;;;;;;;20.67;14.15;;;5.00;99.90;;;;;;5003854;28;86913;-81
2020/12/02 09:16:43;;;;;;;22.25;14.98;;;4.90;99.90;;;;;;5000946;28;87302;-81
2020/12/02 09:19:12;;;;;;;19.75;13.02;;;4.90;99.90;;;;;;4998479;28;86252;-81
2020/12/02 09:21:37;;;;;;;17.85;12.25;;;5.00;99.90;;;;;;5007974;28;86880;-81
2020/12/02 09:24:04;;;;;;;18.75;12.25;;;4.90;99.90;;;;;;4998165;28;87036;-81
2020/12/02 09:26:35;;;;;;;20.45;12.73;;;4.90;99.90;;;;;;5006466;28;88194;-81
2020/12/02 09:29:06;;;;;;;17.13;10.93;;;4.80;99.90;;;;;;5001129;28;88035;-81
2020/12/02 09:31:32;;;;;;;;;;;4.80;99.90;;;;;;4999835;28;86883;-81
2020/12/02 09:33:59;;;;;;;13.82;9.70;;;4.60;99.90;;;;;;4995940;28;86254;-81
2020/12/02 09:36:25;;;;;;;15.40;10.63;;;4.80;99.90;;;;;;5006870;28;87277;-81
2020/12/02 09:38:53;;;;;;;15.50;10.60;;;5.00;99.90;;;;;;5009121;28;86962;-81
2020/12/02 09:41:27;;;;;;;13.30;8.68;;;5.00;99.90;;;;;;5009462;28;87065;-81
2020/12/02 09:44:18;;;;;;;19.98;11.50;;;5.10;99.90;;;;;;5002001;28;86144;-81
2020/12/02 09:47:01;;;;;;;13.40;9.60;;;5.20;99.90;;;;;;4994161;28;87343;-81
2020/12/02 09:49:28;;;;;;;16.95;10.40;;;5.20;99.90;;;;;;4994892;28;87368;-81
2020/12/02 09:52:04;;;;;;;15.93;10.40;;;5.30;99.90;;;;;;5006990;28;87753;-81
2020/12/02 09:54:39;;;;;;;13.38;9.35;;;5.40;99.50;;;;;;4993835;28;86573;-81
2020/12/02 09:57:12;;;;;;;10.93;7.75;;;5.40;93.10;;;;;;5002127;28;87338;-81
2020/12/02 09:59:38;;;;;;;13.98;9.57;;;5.40;93.70;;;;;;5007917;28;86933;-81
2020/12/02 10:02:03;;;;;;;13.07;8.93;;;5.60;93.90;;;;;;5006127;28;86689;-81
2020/12/02 10:04:55;;;;;;;11.90;9.50;;;5.60;89.80;;;;;;5003103;28;86909;-81
2020/12/02 10:07:55;;;;;;;15.18;10.88;;;5.60;91.00;;;;;;5006145;28;86916;-81
2020/12/02 10:10:38;;;;;;;13.95;9.85;;;5.70;92.40;;;;;;4996761;28;87764;-81
2020/12/02 10:13:35;;;;;;;16.17;10.50;;;5.80;91.60;;;;;;5000158;28;86728;-82
2020/12/02 10:16:58;;;;;;;15.10;10.57;;;5.80;92.40;;;;;;4996172;28;86970;-81
2020/12/02 10:20:00;;;;;;;13.68;9.52;;;5.90;91.50;;;;;;4914939;28;88270;-81
2020/12/02 10:22:32;;;;;;;14.85;9.57;;;6.00;90.70;;;;;;4927438;28;88680;-81
2020/12/02 10:25:28;;;;;;;15.00;9.60;;;6.10;90.40;;;;;;4977752;28;86947;-81
2020/12/02 10:28:07;;;;;;;13.07;9.43;;;6.20;90.20;;;;;;5001368;28;86897;-81
2020/12/02 10:30:40;;;;;;;14.70;10.27;;;6.40;89.60;;;;;;5008499;28;87765;-82
2020/12/02 10:33:41;;;;;;;14.15;9.93;;;6.50;87.00;;;;;;5004583;28;87059;-81
2020/12/02 10:36:07;;;;;;;13.10;8.80;;;6.60;85.20;;;;;;4960625;28;86591;-81
2020/12/02 10:38:40;;;;;;;14.48;10.73;;;6.80;85.10;;;;;;4991054;28;86061;-81
2020/12/02 10:41:35;;;;;;;13.25;9.82;;;6.90;85.60;;;;;;4997817;28;86979;-81
2020/12/02 10:44:00;;;;;;;13.95;9.80;;;7.10;85.40;;;;;;4987763;28;86894;-81
2020/12/02 10:46:45;;;;;;;14.10;9.43;;;7.30;83.80;;;;;;5006540;28;87645;-81
2020/12/02 10:49:31;;;;;;;14.02;9.60;;;7.50;82.40;;;;;;4985895;28;87020;-81
2020/12/02 10:51:58;;;;;;;11.65;8.63;;;7.70;81.50;;;;;;4997398;28;86719;-81
2020/12/02 10:54:28;;;;;;;12.88;8.25;;;7.90;80.80;;;;;;4989527;28;87364;-82
2020/12/02 10:56:57;;;;;;;13.75;10.18;;;8.00;81.40;;;;;;5007100;28;86869;-80
2020/12/02 10:59:25;;;;;;;12.00;9.73;;;8.00;79.60;;;;;;5008530;28;86119;-80
2020/12/02 11:01:52;;;;;;;13.02;10.10;;;8.00;79.30;;;;;;5001771;28;87803;-81
2020/12/02 11:04:25;;;;;;;12.65;9.65;;;7.90;79.80;;;;;;4999315;28;86996;-81
2020/12/02 11:07:09;;;;;;;12.63;9.85;;;7.80;79.20;;;;;;4994628;28;86372;-80
2020/12/02 11:10:14;;;;;;;15.10;10.40;;;7.70;79.30;;;;;;5011902;28;86823;-81
2020/12/02 11:12:49;;;;;;;17.23;10.68;;;7.40;79.30;;;;;;4990576;28;87829;-82
2020/12/02 11:15:17;;;;;;;16.45;10.70;;;7.30;80.40;;;;;;4986669;28;89595;-82
2020/12/02 11:18:33;;;;;;;22.58;13.18;;;7.10;79.90;;;;;;5003535;28;87047;-82
2020/12/02 11:21:24;;;;;;;22.10;13.18;;;6.90;81.20;;;;;;4900098;28;87216;-81
2020/12/02 11:24:22;;;;;;;21.77;13.32;;;6.80;82.80;;;;;;4993880;28;87243;-83
2020/12/02 11:26:49;;;;;;;25.08;13.20;;;6.80;83.60;;;;;;4987170;28;86359;-81
2020/12/02 11:29:16;;;;;;;25.08;13.18;;;6.90;82.70;;;;;;5004537;28;86894;-81
2020/12/02 11:32:00;;;;;;;23.35;13.77;;;6.80;82.00;;;;;;5014165;28;86268;-81
2020/12/02 11:34:44;;;;;;;20.70;12.43;;;6.80;82.10;;;;;;4999554;28;86956;-81
2020/12/02 11:37:17;;;;;;;22.67;11.98;;;7.00;81.70;;;;;;5002102;28;88616;-81
2020/12/02 11:39:46;;;;;;;25.38;13.18;;;7.00;81.30;;;;;;5004675;28;87428;-81
2020/12/02 11:42:33;;;;;;;22.67;12.85;;;7.00;80.90;;;;;;4992180;28;86771;-84
2020/12/02 11:45:38;;;;;;;23.40;13.23;;;6.90;81.40;;;;;;4991199;28;87763;-82
2020/12/02 11:48:21;;;;;;;26.38;14.05;;;6.90;80.70;;;;;;4931506;28;89253;-82
2020/12/02 11:51:11;;;;;;;25.08;13.00;;;6.70;80.90;;;;;;4949212;28;87500;-82
2020/12/02 11:53:46;;;;;;;24.70;13.38;;;6.40;81.40;;;;;;4988081;28;87020;-82
2020/12/02 11:56:20;;;;;;;24.88;14.27;;;6.30;82.40;;;;;;4998825;28;87790;-83
2020/12/02 11:58:55;;;;;;;27.33;13.23;;;6.10;83.00;;;;;;5010068;28;87001;-82
2020/12/02 12:01:50;;;;;;;24.95;12.77;;;6.00;82.90;;;;;;4987062;28;86861;-81
2020/12/02 12:04:24;;;;;;;26.77;13.32;;;5.80;83.40;;;;;;4991631;28;87244;-82
2020/12/02 12:06:54;;;;;;;24.83;12.63;;;5.70;83.70;;;;;;4999038;28;88540;-83
2020/12/02 12:09:37;;;;;;;25.13;12.73;;;5.70;84.50;;;;;;4996449;28;87306;-83
2020/12/02 12:12:15;;;;;;;21.77;11.65;;;5.60;84.50;;;;;;4994281;28;87048;-83
2020/12/02 12:15:10;;;;;;;23.52;12.40;;;5.60;85.40;;;;;;5001693;28;87258;-80
2020/12/02 12:17:42;;;;;;;24.63;12.23;;;5.50;84.50;;;;;;5000573;28;86875;-82
2020/12/02 12:20:21;;;;;;;21.30;11.80;;;5.40;85.50;;;;;;4992296;28;87206;-83
2020/12/02 12:22:56;;;;;;;23.50;12.02;;;5.10;85.80;;;;;;5001004;28;87254;-83
2020/12/02 12:25:29;;;;;;;22.05;12.50;;;5.10;86.10;;;;;;5002467;28;86219;-83
2020/12/02 12:28:02;;;;;;;24.75;12.25;;;5.00;85.80;;;;;;5004121;28;87777;-83
2020/12/02 12:30:28;;;;;;;23.50;12.13;;;5.00;86.10;;;;;;5003593;28;87025;-83
2020/12/02 12:33:20;;;;;;;27.48;12.65;;;4.90;86.50;;;;;;4998578;28;87580;-80
2020/12/02 12:35:52;;;;;;;32.38;13.35;;;4.90;86.60;;;;;;4991917;28;87011;-82
2020/12/02 12:38:35;;;;;;;26.13;12.73;;;4.90;86.80;;;;;;5004998;28;86952;-83
2020/12/02 12:41:24;;;;;;;23.38;11.43;;;4.90;87.00;;;;;;5000604;28;87290;-83
2020/12/02 12:44:22;;;;;;;20.38;11.93;;;4.90;88.30;;;;;;4973962;28;86608;-82
2020/12/02 12:46:53;;;;;;;23.83;12.82;;;5.00;87.90;;;;;;4976737;28;86467;-81
2020/12/02 12:49:19;;;;;;;;;;;5.00;87.60;;;;;;5000989;28;88249;-82
2020/12/02 12:51:45;;;;;;;22.65;11.32;;;5.10;87.00;;;;;;4996159;28;86538;-82
2020/12/02 12:54:18;;;;;;;21.17;10.75;;;5.10;86.30;;;;;;4999238;28;87003;-82
2020/12/02 12:56:45;;;;;;;20.33;10.43;;;4.90;86.40;;;;;;4995565;28;86890;-82
2020/12/02 12:59:15;;;;;;;19.48;9.77;;;4.90;87.20;;;;;;4983674;28;88226;-82
2020/12/02 13:01:44;;;;;;;18.20;9.82;;;5.00;87.00;;;;;;4987756;28;89732;-82
2020/12/02 13:04:14;;;;;;;21.83;11.13;;;5.00;86.40;;;;;;4986688;28;87118;-82
2020/12/02 13:06:42;;;;;;;20.23;10.80;;;4.90;85.60;;;;;;4986432;28;86925;-82
2020/12/02 13:09:20;;;;;;;21.83;10.50;;;4.80;86.20;;;;;;4986849;28;87061;-82
2020/12/02 13:12:01;;;;;;;19.98;10.60;;;4.80;86.00;;;;;;4989316;28;87064;-82
2020/12/02 13:14:34;;;;;;;18.15;9.30;;;4.80;85.40;;;;;;5003519;28;86690;-83
2020/12/02 13:17:21;;;;;;;21.38;10.82;;;4.80;85.60;;;;;;4990628;28;86128;-82
2020/12/02 13:20:17;;;;;;;22.40;10.68;;;4.70;85.50;;;;;;5003395;28;86965;-82
2020/12/02 13:22:48;;;;;;;23.63;11.98;;;4.70;85.40;;;;;;4982824;28;90649;-82
2020/12/02 13:25:18;;;;;;;23.33;11.63;;;4.60;85.60;;;;;;4998617;28;87847;-82
2020/12/02 13:28:03;;;;;;;27.48;13.07;;;4.50;86.10;;;;;;4988821;28;86936;-81
2020/12/02 13:30:40;;;;;;;20.02;11.75;;;4.40;85.60;;;;;;5001820;28;86910;-81
2020/12/02 13:33:15;;;;;;;23.15;11.88;;;4.30;86.80;;;;;;4993527;28;86954;-81
2020/12/02 13:35:41;;;;;;;20.77;10.40;;;4.30;86.80;;;;;;4990262;28;86925;-83
2020/12/02 13:38:09;;;;;;;20.60;11.13;;;4.30;87.00;;;;;;5002583;28;86994;-82
2020/12/02 13:40:35;;;;;;;25.38;11.68;;;4.30;86.80;;;;;;4995865;28;87204;-82
2020/12/02 13:43:03;;;;;;;24.30;11.35;;;4.20;87.00;;;;;;4994929;28;86572;-82
2020/12/02 13:45:30;;;;;;;24.75;10.95;;;4.20;87.10;;;;;;5009087;28;86991;-82
2020/12/02 13:47:57;;;;;;;25.25;11.40;;;4.20;87.20;;;;;;5008523;28;87121;-82
2020/12/02 13:50:26;;;;;;;23.80;11.43;;;4.20;86.80;;;;;;5008844;28;88248;-82
2020/12/02 13:53:06;;;;;;;27.98;12.60;;;4.10;87.10;;;;;;5009416;28;87218;-82
2020/12/02 13:56:03;;;;;;;26.17;13.57;;;4.10;87.30;;;;;;5009718;28;86911;-82
2020/12/02 13:58:47;;;;;;;27.90;13.10;;;4.00;87.50;;;;;;4943806;28;86842;-83
2020/12/02 14:01:28;;;;;;;24.13;11.90;;;3.90;87.90;;;;;;5009230;28;86935;-83
2020/12/02 14:04:07;;;;;;;26.73;12.77;;;3.90;87.90;;;;;;5007169;28;86782;-82
2020/12/02 14:06:48;;;;;;;29.88;13.48;;;3.80;88.60;;;;;;5019849;28;86858;-82
2020/12/02 14:09:16;;;;;;;34.13;15.13;;;3.80;89.30;;;;;;4992016;28;86223;-82
2020/12/02 14:11:46;;;;;;;32.75;14.30;;;3.80;89.70;;;;;;5003213;28;87224;-82
2020/12/02 14:14:13;;;;;;;39.47;17.35;;;3.80;89.70;;;;;;5009692;28;86990;-83
2020/12/02 14:16:41;;;;;;;33.42;14.82;;;3.70;89.80;;;;;;5008352;28;87937;-82
2020/12/02 14:19:08;;;;;;;26.77;13.07;;;3.70;90.00;;;;;;5002373;28;87658;-82
2020/12/02 14:21:34;;;;;;;29.40;13.73;;;3.60;90.00;;;;;;5002201;28;88653;-82
2020/12/02 14:24:00;;;;;;;26.73;13.65;;;3.60;90.20;;;;;;4995040;28;86684;-82
2020/12/02 14:26:26;;;;;;;28.08;12.55;;;3.60;90.40;;;;;;4996306;28;86778;-82
2020/12/02 14:28:51;;;;;;;27.05;12.13;;;3.60;90.70;;;;;;5002699;28;86869;-82
2020/12/02 14:31:18;;;;;;;31.65;13.73;;;3.50;90.80;;;;;;5001904;28;86867;-82
2020/12/02 14:33:44;;;;;;;25.38;13.68;;;3.50;90.90;;;;;;5002379;28;86473;-82
2020/12/02 14:36:09;;;;;;;28.20;14.43;;;3.50;90.90;;;;;;4989038;28;86964;-81
2020/12/02 14:38:35;;;;;;;30.10;13.60;;;;;;;;;;5013703;28;86891;-82
2020/12/02 14:41:08;;;;;;;32.92;13.20;;;3.50;90.70;;;;;;5008474;28;87840;-82
2020/12/02 14:43:36;;;;;;;31.73;13.75;;;3.50;91.00;;;;;;4999202;28;88422;-82
2020/12/02 14:46:04;;;;;;;29.50;13.10;;;3.50;91.00;;;;;;5003455;28;86866;-82
2020/12/02 14:48:30;;;;;;;31.27;13.38;;;3.40;91.20;;;;;;4997213;28;86870;-83
2020/12/02 14:50:56;;;;;;;35.05;13.93;;;3.40;91.10;;;;;;5005467;28;87578;-82
2020/12/02 14:53:22;;;;;;;34.65;15.40;;;3.40;91.00;;;;;;5001105;28;87091;-83
2020/12/02 14:55:55;;;;;;;31.80;12.77;;;3.40;91.10;;;;;;5002525;28;86410;-84
2020/12/02 14:58:56;;;;;;;31.65;13.82;;;3.30;91.40;;;;;;5010013;28;86191;-82
2020/12/02 15:01:21;;;;;;;31.93;14.33;;;3.30;91.60;;;;;;4981350;28;88393;-82
2020/12/02 15:03:47;;;;;;;32.22;14.07;;;3.30;91.50;;;;;;5007999;28;87316;-82
2020/12/02 15:06:28;;;;;;;37.10;14.95;;;3.20;91.60;;;;;;5002703;28;87452;-82
2020/12/02 15:09:17;;;;;;;32.40;15.00;;;3.20;91.80;;;;;;5011984;28;86870;-81
2020/12/02 15:11:55;;;;;;;35.53;13.77;;;3.20;91.80;;;;;;5013631;28;87416;-82
2020/12/02 15:14:22;;;;;;;35.33;14.88;;;3.20;91.70;;;;;;5009336;28;86724;-82
2020/12/02 15:17:14;;;;;;;39.25;15.52;;;3.10;91.70;;;;;;4996267;28;86814;-82
2020/12/02 15:19:41;;;;;;;29.42;13.90;;;3.10;91.90;;;;;;5002791;28;86928;-82
2020/12/02 15:22:11;;;;;;;36.55;15.73;;;3.10;91.90;;;;;;5009523;28;87266;-82
2020/12/02 15:24:38;;;;;;;39.95;16.92;;;3.10;91.90;;;;;;5003846;28;86230;-82
2020/12/02 15:27:28;;;;;;;38.72;15.23;;;3.10;92.10;;;;;;5012631;28;86837;-83
2020/12/02 15:29:54;;;;;;;45.03;16.77;;;3.10;92.60;;;;;;4990926;28;87029;-82
2020/12/02 15:32:29;;;;;;;38.65;17.50;;;3.10;92.50;;;;;;4997980;28;88345;-82
2020/12/02 15:34:56;;;;;;;44.28;17.63;;;3.00;92.50;;;;;;5010950;28;88543;-81
2020/12/02 15:37:33;;;;;;;40.42;16.88;;;3.00;92.60;;;;;;5010146;28;86688;-82
2020/12/02 15:40:13;;;;;;;44.10;18.77;;;2.90;92.80;;;;;;4993760;28;86179;-82
2020/12/02 15:42:50;;;;;;;44.78;19.00;;;2.90;93.20;;;;;;4990552;28;86892;-82
2020/12/02 15:45:45;;;;;;;77.40;34.15;;;2.80;93.60;;;;;;4995043;28;86926;-83
2020/12/02 15:48:15;;;;;;;83.40;36.33;;;2.80;94.00;;;;;;4984218;28;86630;-83
2020/12/02 15:50:53;;;;;;;51.47;20.77;;;2.80;94.50;;;;;;5009199;28;86141;-83
2020/12/02 15:53:30;;;;;;;47.08;19.10;;;2.80;94.70;;;;;;4984001;28;91461;-83
2020/12/02 15:56:01;;;;;;;45.83;19.33;;;2.80;94.80;;;;;;5002277;28;87173;-82
2020/12/02 15:58:41;;;;;;;;;;;2.80;94.90;;;;;;4993690;28;87466;-83
2020/12/02 16:01:14;;;;;;;37.63;14.82;;;2.70;94.90;;;;;;5002174;28;87030;-82
2020/12/02 16:03:39;;;;;;;45.67;17.00;;;2.60;95.10;;;;;;5007538;28;87223;-82
2020/12/02 16:06:05;;;;;;;41.45;15.90;;;2.70;95.00;;;;;;4995732;28;86960;-82
2020/12/02 16:08:39;;;;;;;37.47;17.15;;;2.60;94.90;;;;;;4992144;28;86497;-81
2020/12/02 16:11:23;;;;;;;46.03;19.35;;;2.60;94.80;;;;;;4993416;28;86748;-82
2020/12/02 16:13:52;;;;;;;43.65;17.75;;;2.60;95.10;;;;;;4998923;28;87450;-83
2020/12/02 16:16:18;;;;;;;48.20;20.25;;;2.60;95.00;;;;;;5007117;28;87127;-82
2020/12/02 16:18:43;;;;;;;53.85;20.50;;;2.60;95.10;;;;;;4997086;28;86962;-84
2020/12/02 16:21:21;;;;;;;45.00;19.23;;;2.50;95.10;;;;;;5003778;28;87045;-80
2020/12/02 16:23:47;;;;;;;44.00;17.33;;;2.60;95.20;;;;;;4992742;28;88066;-85
2020/12/02 16:26:14;;;;;;;43.97;18.33;;;2.60;95.10;;;;;;5006483;28;89482;-84
2020/12/02 16:28:42;;;;;;;45.38;17.83;;;2.50;94.90;;;;;;4994430;28;86967;-82
2020/12/02 16:31:12;;;;;;;38.88;16.63;;;2.50;94.60;;;;;;5003119;28;87021;-83
2020/12/02 16:33:47;;;;;;;45.03;17.67;;;2.50;94.60;;;;;;4993427;28;89277;-82
2020/12/02 16:36:19;;;;;;;43.88;17.13;;;2.50;94.70;;;;;;5007319;28;86507;-82
2020/12/02 16:38:50;;;;;;;38.95;16.50;;;2.60;94.60;;;;;;4992942;28;86692;-82
2020/12/02 16:41:44;;;;;;;47.95;20.02;;;2.50;94.70;;;;;;4990849;28;86042;-82
2020/12/02 16:44:30;;;;;;;67.55;26.90;;;2.50;94.50;;;;;;4994797;28;86822;-82
2020/12/02 16:47:02;;;;;;;46.78;21.50;;;2.60;94.40;;;;;;5005621;28;86900;-82
2020/12/02 16:49:37;;;;;;;47.78;20.33;;;2.50;94.10;;;;;;5001165;28;88233;-82
2020/12/02 16:52:24;;;;;;;43.45;20.08;;;2.50;93.80;;;;;;4996172;28;86904;-83
2020/12/02 16:55:07;;;;;;;37.78;17.23;;;2.70;94.00;;;;;;5008468;28;86832;-82
2020/12/02 16:57:32;;;;;;;45.17;21.10;;;2.50;93.90;;;;;;5005490;28;87566;-82
2020/12/02 17:00:13;;;;;;;42.72;20.23;;;2.40;94.00;;;;;;5010083;28;87034;-83